Time;durP1;ratioP1;P1;durP2;ratioP2;P2;SDS_P1;SDS_P2;PMS_P1;PMS_P2;Temp;Humidity;BMP_temperature;BMP_pressure;BME280_temperature;BME280_humidity;BME280_pressure;Samples;Min_cycle;Max_cycle;Signal;HPM_P1;HPM_P2
2023/01/24 00:02:15;;;;;;;15.53;13.83;;;;;;;2.60;100.00;99486.75;5053747;28;20311;-72
2023/01/24 00:04:41;;;;;;;15.23;13.63;;;;;;;2.67;100.00;99493.13;5053540;28;20223;-72
2023/01/24 00:07:08;;;;;;;17.37;14.57;;;;;;;2.67;100.00;99493.13;5053822;28;20221;-72
2023/01/24 00:09:34;;;;;;;16.33;13.93;;;;;;;2.73;100.00;99487.31;5053596;28;20209;-72
2023/01/24 00:12:00;;;;;;;16.23;14.13;;;;;;;2.63;100.00;99489.94;5053458;28;20229;-72
2023/01/24 00:14:27;;;;;;;15.83;13.97;;;;;;;2.59;100.00;99487.72;5053829;28;20576;-72
2023/01/24 00:16:53;;;;;;;16.73;14.23;;;;;;;2.61;100.00;99475.25;5053822;28;20210;-72
2023/01/24 00:19:20;;;;;;;16.37;14.20;;;;;;;2.46;100.00;99485.34;5053401;28;20668;-72
2023/01/24 00:21:46;;;;;;;17.20;14.43;;;;;;;2.66;100.00;99473.09;5053362;28;20227;-72
2023/01/24 00:24:12;;;;;;;16.63;13.63;;;;;;;2.67;100.00;99474.75;5053732;28;20209;-72
2023/01/24 00:26:39;;;;;;;15.17;12.97;;;;;;;2.80;100.00;99481.41;5053629;28;20208;-72
2023/01/24 00:29:05;;;;;;;17.03;13.30;;;;;;;2.76;100.00;99489.69;5053735;28;20213;-72
2023/01/24 00:31:31;;;;;;;14.73;12.40;;;;;;;2.77;100.00;99484.31;5053139;28;20228;-72
2023/01/24 00:33:58;;;;;;;15.03;12.70;;;;;;;2.67;100.00;99482.63;5053610;28;20206;-72
2023/01/24 00:36:24;;;;;;;16.17;13.87;;;;;;;2.63;100.00;99489.94;5053580;28;20209;-72
2023/01/24 00:38:51;;;;;;;16.53;14.43;;;;;;;2.59;100.00;99485.94;5053563;28;20206;-72
2023/01/24 00:41:17;;;;;;;16.93;14.53;;;;;;;2.64;100.00;99488.13;5053477;28;20250;-72
2023/01/24 00:43:43;;;;;;;16.47;13.07;;;;;;;2.68;100.00;99500.88;5053483;28;20217;-72
2023/01/24 00:46:10;;;;;;;15.63;12.63;;;;;;;2.67;100.00;99495.75;5054012;28;20210;-72
2023/01/24 00:48:36;;;;;;;15.70;12.43;;;;;;;2.63;100.00;99495.19;5053409;28;20320;-72
2023/01/24 00:51:03;;;;;;;17.00;14.03;;;;;;;2.59;100.00;99493.81;5053333;28;20201;-72
2023/01/24 00:53:29;;;;;;;15.70;13.10;;;;;;;2.70;100.00;99496.31;5053317;28;20201;-72
2023/01/24 00:55:56;;;;;;;15.17;13.07;;;;;;;2.68;100.00;99493.00;5053226;28;20205;-72
2023/01/24 00:58:23;;;;;;;18.17;14.20;;;;;;;2.62;100.00;99495.34;5053220;28;20223;-72
2023/01/24 01:00:50;;;;;;;18.93;14.00;;;;;;;2.59;100.00;99492.97;5052924;28;20209;-72
2023/01/24 01:03:19;;;;;;;16.53;12.57;;;;;;;2.65;100.00;99495.03;5052824;28;20730;-72
2023/01/24 01:05:46;;;;;;;15.43;12.93;;;;;;;2.69;100.00;99485.94;5053046;28;20216;-72
2023/01/24 01:08:13;;;;;;;15.13;13.23;;;;;;;2.75;100.00;99491.47;5052900;28;20221;-72
2023/01/24 01:10:40;;;;;;;14.83;12.80;;;;;;;2.80;100.00;99506.84;5052952;28;20208;-72
2023/01/24 01:13:07;;;;;;;15.90;12.80;;;;;;;2.59;100.00;99503.47;5053024;28;20315;-72
2023/01/24 01:15:33;;;;;;;15.90;13.53;;;;;;;2.69;100.00;99506.94;5053195;28;20213;-72
2023/01/24 01:18:00;;;;;;;15.50;13.27;;;;;;;2.72;100.00;99512.78;5052877;28;20206;-72
2023/01/24 01:20:27;;;;;;;16.90;13.43;;;;;;;2.73;100.00;99505.72;5052802;28;20205;-72
2023/01/24 01:22:54;;;;;;;16.53;14.27;;;;;;;2.77;100.00;99507.94;5052660;28;20225;-72
2023/01/24 01:25:20;;;;;;;15.83;13.97;;;;;;;2.68;100.00;99500.03;5052984;28;20289;-72
2023/01/24 01:27:46;;;;;;;16.47;13.57;;;;;;;2.70;100.00;99503.34;5052586;28;20696;-72
2023/01/24 01:30:13;;;;;;;16.30;13.80;;;;;;;2.73;100.00;99508.34;5052920;28;20201;-72
2023/01/24 01:32:39;;;;;;;15.07;13.47;;;;;;;2.82;100.00;99507.53;5054910;28;20221;-72
2023/01/24 01:35:06;;;;;;;16.50;13.67;;;;;;;2.81;100.00;99506.72;5056732;28;20205;-72
2023/01/24 01:37:32;;;;;;;17.93;13.63;;;;;;;2.81;100.00;99511.13;5056349;28;20544;-72
2023/01/24 01:39:59;;;;;;;16.37;13.73;;;;;;;2.69;100.00;99513.03;5056633;28;20575;-72
2023/01/24 01:42:25;;;;;;;17.53;13.30;;;;;;;2.78;100.00;99509.59;5055896;28;20244;-72
2023/01/24 01:44:54;;;;;;;16.77;14.43;;;;;;;2.63;100.00;99518.84;5056560;28;20228;-72
2023/01/24 01:47:26;;;;;;;17.33;13.77;;;;;;;2.61;100.00;99518.13;5056142;28;20232;-72
2023/01/24 01:50:17;;;;;;;17.33;13.90;;;;;;;2.61;100.00;99523.38;5056508;28;20190;-72
2023/01/24 01:52:44;;;;;;;16.93;13.93;;;;;;;2.64;100.00;99517.00;5056561;28;20577;-72
2023/01/24 01:55:17;;;;;;;16.03;14.10;;;;;;;2.67;100.00;99514.94;5056168;28;20205;-72
2023/01/24 01:57:44;;;;;;;16.73;13.93;;;;;;;2.76;100.00;99523.84;5056345;28;20186;-72
2023/01/24 02:00:17;;;;;;;15.83;13.90;;;;;;;2.73;100.00;99522.31;5056243;28;20205;-72
2023/01/24 02:02:48;;;;;;;17.03;13.90;;;;;;;2.61;100.00;99522.53;5056232;28;20239;-72
2023/01/24 02:05:19;;;;;;;18.20;14.57;;;;;;;2.56;100.00;99516.84;5056196;28;20533;-72
2023/01/24 02:07:56;;;;;;;16.97;13.60;;;;;;;2.53;100.00;99507.44;5056256;28;20216;-72
2023/01/24 02:11:37;;;;;;;17.97;14.87;;;;;;;2.63;100.00;99515.38;5055971;28;20200;-72
2023/01/24 02:13:11;;;;;;;16.87;13.87;;;;;;;2.57;100.00;99523.78;5055602;28;20244;-72
2023/01/24 02:18:22;;;;;;;16.83;14.13;;;;;;;2.69;100.00;99525.31;5055811;28;20168;-72
2023/01/24 02:20:49;;;;;;;14.97;12.70;;;;;;;2.65;100.00;99532.63;5056060;28;20224;-72
2023/01/24 02:23:40;;;;;;;17.00;13.67;;;;;;;2.66;100.00;99528.22;5055843;28;20225;-72
2023/01/24 02:26:15;;;;;;;16.93;13.57;;;;;;;2.69;100.00;99527.94;5056022;28;20193;-72
2023/01/24 02:28:47;;;;;;;16.90;13.73;;;;;;;2.82;100.00;99528.53;5055792;28;20229;-72
2023/01/24 02:31:14;;;;;;;17.00;13.70;;;;;;;2.82;100.00;99511.00;5055767;28;20233;-72
2023/01/24 02:33:40;;;;;;;14.20;12.70;;;;;;;2.77;100.00;99533.38;5055761;28;20213;-72
2023/01/24 02:36:25;;;;;;;15.37;12.93;;;;;;;2.70;100.00;99543.56;5055368;28;20687;-72
2023/01/24 02:38:59;;;;;;;16.23;13.60;;;;;;;2.68;100.00;99536.78;5055521;28;20189;-72
2023/01/24 02:41:30;;;;;;;14.90;12.53;;;;;;;2.61;100.00;99535.66;5055862;28;20729;-72
2023/01/24 02:44:02;;;;;;;17.63;13.37;;;;;;;2.74;100.00;99541.50;5054576;28;20200;-72
2023/01/24 02:46:31;;;;;;;15.67;12.90;;;;;;;2.64;100.00;99546.75;5055553;28;20194;-72
2023/01/24 02:48:57;;;;;;;15.10;12.60;;;;;;;2.71;100.00;99549.66;5055094;28;20225;-72
2023/01/24 02:54:08;;;;;;;15.50;13.30;;;;;;;2.57;100.00;99545.59;5055195;28;20180;-72
2023/01/24 02:59:18;;;;;;;17.37;13.57;;;;;;;2.61;100.00;99551.41;5055600;28;20213;-72
2023/01/24 03:01:44;;;;;;;18.07;13.83;;;;;;;2.59;100.00;99551.56;5055791;28;20675;-72
2023/01/24 03:04:12;;;;;;;14.93;13.33;;;;;;;2.51;100.00;99546.13;5055007;28;20215;-72
2023/01/24 03:06:38;;;;;;;16.27;13.23;;;;;;;2.68;100.00;99550.78;5055032;28;20635;-72
2023/01/24 03:09:18;;;;;;;16.37;13.67;;;;;;;2.71;100.00;99544.41;5054686;28;20225;-72
2023/01/24 03:11:46;;;;;;;14.53;12.83;;;;;;;2.68;100.00;99547.28;5054870;28;20273;-72
2023/01/24 03:36:06;;;;;;;16.17;13.63;;;;;;;2.53;100.00;99549.44;5054326;28;20172;-72
2023/01/24 03:41:17;;;;;;;16.13;13.40;;;;;;;2.59;100.00;99554.19;5054590;28;20703;-72
2023/01/24 03:43:44;;;;;;;18.13;14.63;;;;;;;2.62;100.00;99553.91;5054281;28;20209;-72
2023/01/24 03:46:10;;;;;;;16.87;13.20;;;;;;;2.58;100.00;99551.69;5054962;28;20209;-72
2023/01/24 03:48:37;;;;;;;15.27;12.73;;;;;;;2.49;100.00;99548.03;5054798;28;20226;-72
2023/01/24 03:53:48;;;;;;;17.87;13.93;;;;;;;2.45;100.00;99558.97;5054416;28;20223;-72
2023/01/24 03:56:15;;;;;;;16.37;13.57;;;;;;;2.56;100.00;99557.06;5053792;28;20296;-72
2023/01/24 03:58:41;;;;;;;18.63;14.67;;;;;;;2.50;100.00;99556.75;5054005;28;20201;-72
2023/01/24 04:01:08;;;;;;;17.17;13.83;;;;;;;2.42;100.00;99556.59;5053941;28;20300;-72
2023/01/24 04:03:34;;;;;;;17.60;13.87;;;;;;;2.50;100.00;99565.47;5053659;28;20686;-73
2023/01/24 04:06:01;;;;;;;19.17;14.37;;;;;;;2.58;100.00;99560.38;5053772;28;20205;-72
2023/01/24 04:08:27;;;;;;;18.00;13.97;;;;;;;2.44;100.00;99559.91;5054306;28;20239;-72
2023/01/24 04:10:56;;;;;;;17.13;13.27;;;;;;;2.62;100.00;99558.34;5053749;28;20212;-72
2023/01/24 04:13:22;;;;;;;18.97;13.77;;;;;;;2.50;100.00;99564.63;5053353;28;20275;-72
2023/01/24 04:15:48;;;;;;;16.57;13.70;;;;;;;2.53;100.00;99556.50;5053695;28;20201;-72
2023/01/24 04:18:15;;;;;;;15.97;12.47;;;;;;;2.59;100.00;99550.72;5053329;28;20201;-72
2023/01/24 04:20:41;;;;;;;16.17;12.70;;;;;;;2.64;100.00;99553.78;5054212;28;20205;-72
2023/01/24 04:23:09;;;;;;;17.57;13.97;;;;;;;2.54;100.00;99552.91;5053239;28;20733;-72
2023/01/24 04:25:35;;;;;;;16.97;14.07;;;;;;;2.53;100.00;99548.63;5053196;28;20726;-72
2023/01/24 04:28:02;;;;;;;18.47;14.37;;;;;;;2.48;100.00;99550.81;5053430;28;20229;-72
2023/01/24 04:30:28;;;;;;;17.23;13.27;;;;;;;2.46;100.00;99552.72;5053786;28;20205;-72
2023/01/24 04:32:54;;;;;;;19.17;14.87;;;;;;;2.47;100.00;99542.09;5053872;28;20225;-72
2023/01/24 04:35:26;;;;;;;16.47;14.20;;;;;;;2.61;100.00;99547.00;5053146;28;20575;-72
2023/01/24 04:37:54;;;;;;;17.10;14.17;;;;;;;2.57;100.00;99544.78;5053452;28;20209;-72
2023/01/24 04:40:20;;;;;;;16.70;13.43;;;;;;;2.62;100.00;99550.47;5052923;28;20215;-72
2023/01/24 04:42:46;;;;;;;18.77;14.90;;;;;;;2.54;100.00;99550.28;5053018;28;20221;-72
2023/01/24 04:45:13;;;;;;;19.10;14.53;;;;;;;2.58;100.00;99546.44;5052898;28;20758;-72
2023/01/24 04:47:39;;;;;;;16.13;13.63;;;;;;;2.55;100.00;99551.94;5053099;28;20205;-72
2023/01/24 04:50:06;;;;;;;19.53;14.37;;;;;;;2.55;100.00;99559.81;5053396;28;20529;-72
2023/01/24 04:52:33;;;;;;;19.63;14.87;;;;;;;2.48;100.00;99561.31;5053205;28;20221;-72
2023/01/24 04:54:59;;;;;;;18.27;14.50;;;;;;;2.52;100.00;99562.72;5053311;28;20205;-72
2023/01/24 04:57:25;;;;;;;17.97;13.37;;;;;;;2.58;100.00;99551.69;5053296;28;20570;-72
2023/01/24 04:59:52;;;;;;;20.57;14.63;;;;;;;2.55;100.00;99562.44;5052951;28;20675;-72
2023/01/24 05:02:18;;;;;;;17.60;13.73;;;;;;;2.49;100.00;99569.03;5053020;28;20221;-72
2023/01/24 05:04:45;;;;;;;19.43;15.13;;;;;;;2.43;100.00;99568.78;5053014;28;20212;-72
2023/01/24 05:07:11;;;;;;;18.63;14.27;;;;;;;2.59;100.00;99569.94;5054186;28;20205;-72
2023/01/24 05:09:38;;;;;;;18.67;13.93;;;;;;;2.59;100.00;99577.81;5057127;28;20221;-72
2023/01/24 05:12:04;;;;;;;18.77;14.77;;;;;;;2.60;100.00;99571.59;5056449;28;20243;-72
2023/01/24 05:14:31;;;;;;;19.03;14.97;;;;;;;2.50;100.00;99569.88;5056821;28;20197;-72
2023/01/24 05:16:57;;;;;;;19.17;14.77;;;;;;;2.39;100.00;99573.44;5057045;28;20602;-72
2023/01/24 05:19:23;;;;;;;18.30;14.63;;;;;;;2.45;100.00;99583.41;5056810;28;20197;-72
2023/01/24 05:21:50;;;;;;;18.87;15.23;;;;;;;2.57;100.00;99577.09;5056701;28;20270;-72
2023/01/24 05:24:18;;;;;;;20.10;14.97;;;;;;;2.55;100.00;99570.31;5056780;28;20205;-72
2023/01/24 05:26:44;;;;;;;20.10;15.87;;;;;;;2.54;100.00;99582.63;5056764;28;20687;-72
2023/01/24 05:29:11;;;;;;;19.53;15.90;;;;;;;2.44;100.00;99575.69;5056711;28;20240;-72
2023/01/24 05:31:37;;;;;;;20.20;15.93;;;;;;;2.51;100.00;99580.25;5056666;28;20221;-72
2023/01/24 05:34:05;;;;;;;21.00;15.87;;;;;;;2.45;100.00;99593.06;5056625;28;20205;-72
2023/01/24 05:36:32;;;;;;;20.97;16.77;;;;;;;2.49;100.00;99589.22;5057179;28;20209;-72
2023/01/24 05:38:58;;;;;;;23.00;16.87;;;;;;;2.52;100.00;99594.22;5056394;28;20197;-72
2023/01/24 05:41:24;;;;;;;22.10;15.53;;;;;;;2.47;100.00;99597.22;5055949;28;20225;-72
2023/01/24 05:43:51;;;;;;;23.30;16.20;;;;;;;2.53;100.00;99595.88;5056201;28;20209;-72
2023/01/24 05:46:20;;;;;;;22.10;16.77;;;;;;;2.38;100.00;99600.63;5056146;28;20201;-72
2023/01/24 05:48:47;;;;;;;22.13;16.20;;;;;;;2.43;100.00;99605.50;5056025;28;20225;-72
2023/01/24 05:51:17;;;;;;;20.63;16.67;;;;;;;2.43;100.00;99598.44;5056110;28;20250;-72
2023/01/24 05:53:44;;;;;;;22.73;16.63;;;;;;;2.38;100.00;99595.38;5056054;28;20205;-72
2023/01/24 05:56:13;;;;;;;21.67;16.30;;;;;;;2.32;100.00;99598.53;5055836;28;20213;-72
2023/01/24 05:58:41;;;;;;;22.90;17.57;;;;;;;2.38;100.00;99602.41;5056067;28;20201;-72
2023/01/24 06:01:22;;;;;;;23.13;17.50;;;;;;;2.49;100.00;99599.72;5056628;28;20229;-72
2023/01/24 06:03:51;;;;;;;22.90;16.53;;;;;;;2.47;100.00;99599.00;5055873;28;20193;-72
2023/01/24 06:06:20;;;;;;;21.40;17.07;;;;;;;2.38;100.00;99605.03;5055259;28;20641;-72
2023/01/24 06:08:46;;;;;;;21.20;16.20;;;;;;;2.46;100.00;99605.22;5055663;28;20236;-72
2023/01/24 06:11:18;;;;;;;22.70;16.93;;;;;;;2.46;100.00;99605.22;5055680;28;20229;-72
2023/01/24 06:13:46;;;;;;;23.83;17.10;;;;;;;2.42;100.00;99611.69;5055101;28;20219;-72
2023/01/24 06:16:17;;;;;;;21.53;15.97;;;;;;;2.51;100.00;99600.41;5055258;28;20704;-72
2023/01/24 06:18:44;;;;;;;22.83;17.17;;;;;;;2.47;100.00;99606.88;5055413;28;20198;-72
2023/01/24 06:21:42;;;;;;;22.53;16.83;;;;;;;2.37;100.00;99612.09;5055190;28;20298;-72
2023/01/24 06:24:22;;;;;;;22.87;15.53;;;;;;;2.50;100.00;99617.97;5054978;28;20185;-72
2023/01/24 06:26:50;;;;;;;22.33;16.70;;;;;;;2.53;100.00;99609.00;5055342;28;20230;-72
2023/01/24 06:29:17;;;;;;;24.17;17.10;;;;;;;2.44;100.00;99610.59;5055236;28;20259;-72
2023/01/24 06:31:48;;;;;;;24.03;16.57;;;;;;;2.51;100.00;99608.28;5054885;28;20229;-72
2023/01/24 06:34:25;;;;;;;24.33;16.50;;;;;;;2.50;100.00;99615.34;5055042;28;20186;-72
2023/01/24 06:37:25;;;;;;;21.87;15.30;;;;;;;2.51;100.00;99619.63;5054870;28;20193;-72
2023/01/24 06:39:54;;;;;;;22.67;16.23;;;;;;;2.53;100.00;99624.75;5054314;28;20581;-72
2023/01/24 06:42:22;;;;;;;23.37;17.53;;;;;;;2.47;100.00;99626.09;5054550;28;20260;-72
2023/01/24 06:44:49;;;;;;;23.97;17.10;;;;;;;2.51;100.00;99630.13;5054542;28;20640;-72
2023/01/24 06:47:16;;;;;;;22.30;17.10;;;;;;;2.45;100.00;99638.53;5054369;28;20205;-72
2023/01/24 06:49:42;;;;;;;23.37;18.10;;;;;;;2.45;100.00;99635.91;5054096;28;20719;-72
2023/01/24 06:52:09;;;;;;;22.63;16.17;;;;;;;2.48;100.00;99640.06;5054424;28;20716;-73
2023/01/24 06:54:35;;;;;;;22.03;15.73;;;;;;;2.50;100.00;99630.25;5054025;28;20217;-72
2023/01/24 06:57:03;;;;;;;22.70;15.50;;;;;;;2.50;100.00;99633.72;5054419;28;20691;-72
2023/01/24 06:59:29;;;;;;;22.77;16.77;;;;;;;2.39;100.00;99644.28;5054420;28;20228;-72
2023/01/24 07:01:55;;;;;;;22.10;16.03;;;;;;;2.51;100.00;99637.16;5054591;28;20239;-72
2023/01/24 07:04:22;;;;;;;21.80;16.80;;;;;;;2.48;100.00;99651.38;5054752;28;20200;-73
2023/01/24 07:06:52;;;;;;;22.97;16.03;;;;;;;2.45;100.00;99645.56;5054376;28;20216;-72
2023/01/24 07:09:19;;;;;;;22.27;15.83;;;;;;;2.48;100.00;99645.31;5054610;28;20316;-72
2023/01/24 07:11:47;;;;;;;22.83;16.33;;;;;;;2.50;100.00;99653.88;5053940;28;20225;-72
2023/01/24 07:14:14;;;;;;;21.30;15.37;;;;;;;2.51;100.00;99650.28;5054510;28;20656;-72
2023/01/24 07:16:40;;;;;;;19.37;14.77;;;;;;;2.49;100.00;99654.84;5054497;28;20205;-72
2023/01/24 07:19:13;;;;;;;20.03;16.23;;;;;;;2.40;100.00;99660.88;5054342;28;20207;-72
2023/01/24 07:21:40;;;;;;;24.30;16.27;;;;;;;2.36;100.00;99648.97;5054255;28;20256;-72
2023/01/24 07:24:13;;;;;;;25.27;16.00;;;;;;;2.41;100.00;99650.25;5054207;28;20209;-72
2023/01/24 07:26:40;;;;;;;21.23;15.83;;;;;;;2.43;100.00;99660.63;5053651;28;20625;-72
2023/01/24 07:29:07;;;;;;;21.37;15.47;;;;;;;2.42;100.00;99656.31;5053385;28;20231;-72
2023/01/24 07:31:33;;;;;;;22.00;16.33;;;;;;;2.38;100.00;99655.75;5051618;28;20232;-72
2023/01/24 07:34:00;;;;;;;21.70;15.80;;;;;;;2.48;100.00;99661.88;5052731;28;20201;-72
2023/01/24 07:36:26;;;;;;;20.83;14.87;;;;;;;2.51;100.00;99659.00;5054254;28;20210;-72
2023/01/24 07:38:56;;;;;;;20.63;15.53;;;;;;;2.50;100.00;99661.75;5053937;28;20202;-72
2023/01/24 07:41:23;;;;;;;19.50;15.63;;;;;;;2.49;100.00;99658.28;5053802;28;20221;-72
2023/01/24 07:43:50;;;;;;;22.00;15.93;;;;;;;2.50;100.00;99669.63;5053887;28;20213;-72
2023/01/24 07:46:16;;;;;;;19.87;14.70;;;;;;;2.50;100.00;99669.63;5053862;28;20209;-72
2023/01/24 07:48:43;;;;;;;21.50;14.80;;;;;;;2.61;100.00;99683.53;5053310;28;20225;-72
2023/01/24 07:51:09;;;;;;;19.73;14.60;;;;;;;2.51;100.00;99684.41;5053778;28;20205;-72
2023/01/24 07:53:36;;;;;;;20.13;15.17;;;;;;;2.54;100.00;99681.53;5053982;28;20204;-72
2023/01/24 07:56:04;;;;;;;19.57;14.63;;;;;;;2.66;100.00;99680.53;5054285;28;20217;-72
2023/01/24 07:58:31;;;;;;;18.93;15.00;;;;;;;2.57;100.00;99690.00;5053539;28;20209;-72
2023/01/24 08:00:57;;;;;;;20.73;15.13;;;;;;;2.63;100.00;99696.53;5053028;28;20292;-72
2023/01/24 08:03:24;;;;;;;22.13;15.10;;;;;;;2.69;100.00;99691.59;5053651;28;20201;-72
2023/01/24 08:05:50;;;;;;;21.67;14.80;;;;;;;2.54;100.00;99702.53;5053570;28;20284;-72
2023/01/24 08:08:16;;;;;;;20.90;15.27;;;;;;;2.63;100.00;99699.16;5053524;28;20668;-72
2023/01/24 08:10:42;;;;;;;20.90;15.00;;;;;;;2.68;100.00;99699.59;5053179;28;20726;-72
2023/01/24 08:13:09;;;;;;;19.77;14.60;;;;;;;2.69;100.00;99701.25;5052827;28;20229;-72
2023/01/24 08:15:35;;;;;;;20.77;15.70;;;;;;;2.62;100.00;99700.94;5052981;28;20209;-71
2023/01/24 08:18:05;;;;;;;21.27;15.10;;;;;;;2.63;100.00;99699.16;5053501;28;20215;-72
2023/01/24 08:20:31;;;;;;;19.57;15.37;;;;;;;2.63;100.00;99701.78;5053034;28;20676;-72
2023/01/24 08:22:58;;;;;;;22.20;15.87;;;;;;;2.71;100.00;99709.84;5053046;28;20225;-72
2023/01/24 08:25:30;;;;;;;26.20;16.20;;;;;;;2.73;100.00;99713.16;5053099;28;20215;-72
2023/01/24 08:27:56;;;;;;;21.23;16.43;;;;;;;2.82;100.00;99707.13;5053190;28;20232;-72
2023/01/24 08:30:22;;;;;;;22.27;15.97;;;;;;;2.73;100.00;99708.75;5052870;28;20233;-72
2023/01/24 08:32:49;;;;;;;21.83;15.47;;;;;;;2.55;100.00;99725.22;5052673;28;20236;-72
2023/01/24 08:35:15;;;;;;;21.40;15.93;;;;;;;2.68;100.00;99718.81;5052877;28;20209;-72
2023/01/24 08:37:42;;;;;;;20.57;15.60;;;;;;;2.71;100.00;99725.59;5053210;28;20208;-72
2023/01/24 08:40:10;;;;;;;23.00;15.63;;;;;;;2.75;100.00;99716.50;5052937;28;20734;-72
2023/01/24 08:42:37;;;;;;;20.33;14.93;;;;;;;2.68;100.00;99720.59;5051824;28;20263;-72
2023/01/24 08:45:03;;;;;;;21.40;16.03;;;;;;;2.80;100.00;99730.06;5053068;28;20212;-72
2023/01/24 08:47:30;;;;;;;22.30;15.70;;;;;;;2.75;100.00;99727.81;5052672;28;20205;-72
2023/01/24 08:49:56;;;;;;;20.50;15.40;;;;;;;2.94;100.00;99733.19;5053139;28;20236;-72
2023/01/24 08:52:22;;;;;;;21.07;15.83;;;;;;;2.90;100.00;99733.59;5052866;28;20240;-72
2023/01/24 08:54:49;;;;;;;21.63;15.43;;;;;;;3.01;100.00;99730.88;5052577;28;20205;-71
2023/01/24 08:57:15;;;;;;;21.17;15.83;;;;;;;2.79;100.00;99731.03;5052948;28;20213;-72
2023/01/24 08:59:41;;;;;;;22.70;16.33;;;;;;;2.89;100.00;99734.56;5052948;28;20228;-72
2023/01/24 09:02:13;;;;;;;21.37;15.27;;;;;;;3.11;100.00;99740.47;5052685;28;20638;-71
2023/01/24 09:04:42;;;;;;;18.70;14.97;;;;;;;3.00;100.00;99735.31;5053163;28;20190;-71
2023/01/24 09:07:08;;;;;;;22.83;15.77;;;;;;;3.01;100.00;99741.38;5052942;28;20205;-72
2023/01/24 09:09:35;;;;;;;20.37;14.47;;;;;;;3.19;100.00;99738.00;5052745;28;20221;-72
2023/01/24 09:12:01;;;;;;;19.47;13.97;;;;;;;3.11;100.00;99740.47;5052877;28;20237;-71
2023/01/24 09:14:27;;;;;;;20.03;14.67;;;;;;;3.10;100.00;99741.44;5052846;28;20189;-72
2023/01/24 09:16:54;;;;;;;20.30;14.60;;;;;;;3.03;100.00;99734.22;5053352;28;20201;-72
2023/01/24 09:19:21;;;;;;;19.60;14.57;;;;;;;3.30;100.00;99739.72;5052418;28;20206;-72
2023/01/24 09:21:51;;;;;;;17.03;14.27;;;;;;;2.99;100.00;99743.31;5052737;28;20673;-72
2023/01/24 09:24:18;;;;;;;20.67;15.47;;;;;;;3.02;100.00;99746.50;5052100;28;20602;-72
2023/01/24 09:26:46;;;;;;;18.77;14.27;;;;;;;3.19;100.00;99745.91;5052298;28;20205;-72
2023/01/24 09:29:12;;;;;;;20.07;13.93;;;;;;;3.43;100.00;99748.22;5052820;28;20220;-72
2023/01/24 09:31:38;;;;;;;19.70;14.07;;;;;;;3.43;100.00;99750.84;5052780;28;20229;-72
2023/01/24 09:34:05;;;;;;;17.83;13.43;;;;;;;3.41;100.00;99750.13;5052720;28;20216;-72
2023/01/24 09:36:31;;;;;;;16.23;12.53;;;;;;;3.14;100.00;99749.88;5052672;28;20217;-72
2023/01/24 09:38:58;;;;;;;17.20;12.97;;;;;;;3.29;100.00;99752.03;5052586;28;20201;-72
2023/01/24 09:41:42;;;;;;;15.77;12.63;;;;;;;3.27;100.00;99761.00;5053365;28;20228;-72
2023/01/24 09:44:28;;;;;;;17.33;13.37;;;;;;;3.12;100.00;99765.78;5052500;28;20193;-71
2023/01/24 09:46:56;;;;;;;18.00;13.30;;;;;;;3.18;100.00;99752.13;5051579;28;20190;-72
2023/01/24 09:49:28;;;;;;;17.87;13.37;;;;;;;3.33;100.00;99757.84;5052353;28;20287;-72
2023/01/24 09:51:55;;;;;;;17.80;12.57;;;;;;;3.31;100.00;99759.78;5052728;28;20231;-71
2023/01/24 09:54:33;;;;;;;16.83;12.17;;;;;;;3.21;100.00;99759.72;5055249;28;20695;-72
2023/01/24 09:56:59;;;;;;;16.13;12.80;;;;;;;3.33;100.00;99765.72;5054794;28;20524;-71
2023/01/24 09:59:39;;;;;;;16.37;10.33;;;;;;;3.33;100.00;99765.72;5056006;28;20205;-71
2023/01/24 10:02:21;;;;;;;15.23;11.27;;;;;;;3.30;100.00;99764.19;5055953;28;20235;-71
2023/01/24 10:04:50;;;;;;;17.00;11.73;;;;;;;3.31;100.00;99757.16;5055385;28;20691;-71
2023/01/24 10:07:28;;;;;;;14.67;11.40;;;;;;;3.24;100.00;99759.47;5055663;28;20205;-71
2023/01/24 10:10:16;;;;;;;18.17;12.30;;;;;;;3.40;100.00;99766.88;5055875;28;20210;-71
2023/01/24 10:13:19;;;;;;;13.67;10.40;;;;;;;3.49;100.00;99760.81;5055648;28;20232;-71
2023/01/24 10:16:02;;;;;;;14.47;10.57;;;;;;;3.46;100.00;99755.81;5054801;28;20195;-71
2023/01/24 10:18:58;;;;;;;12.67;10.17;;;;;;;3.41;100.00;99765.91;5039599;28;20194;-71
2023/01/24 10:21:58;;;;;;;14.93;10.07;;;;;;;3.47;100.00;99757.47;5055639;28;20229;-71
2023/01/24 10:24:32;;;;;;;12.30;9.50;;;;;;;3.65;100.00;99761.13;5054555;28;20205;-71
2023/01/24 10:27:00;;;;;;;10.90;9.77;;;;;;;3.51;100.00;99757.09;5056200;28;20313;-71
2023/01/24 10:29:32;;;;;;;14.00;10.00;;;;;;;3.54;100.00;99761.25;5055483;28;20236;-74
2023/01/24 10:32:04;;;;;;;10.83;9.67;;;;;;;3.67;100.00;99753.97;5055851;28;20241;-74
2023/01/24 10:34:41;;;;;;;11.13;8.70;;;;;;;3.75;100.00;99754.13;5055691;28;20216;-73
2023/01/24 10:37:21;;;;;;;11.70;8.80;;;;;;;3.75;100.00;99746.25;5055550;28;20197;-73
2023/01/24 10:39:47;;;;;;;14.17;9.27;;;;;;;3.90;100.00;99750.97;5055037;28;20628;-74
2023/01/24 10:42:26;;;;;;;12.60;9.27;;;;;;;3.72;100.00;99749.97;5055236;28;20251;-71
2023/01/24 10:44:56;;;;;;;10.73;9.03;;;;;;;3.74;100.00;99752.44;5054862;28;20205;-71
2023/01/24 10:47:40;;;;;;;10.87;9.30;;;;;;;3.74;100.00;99747.19;5054829;28;20700;-71
2023/01/24 10:50:12;;;;;;;11.80;9.27;;;;;;;3.60;100.00;99747.56;5055083;28;20687;-74
2023/01/24 10:52:39;;;;;;;11.43;9.20;;;;;;;3.88;100.00;99747.63;5055417;28;20232;-74
2023/01/24 10:55:22;;;;;;;11.03;8.93;;;;;;;3.77;100.00;99734.63;5055662;28;20209;-73
2023/01/24 10:57:54;;;;;;;11.10;8.53;;;;;;;3.92;100.00;99740.28;5054814;28;20197;-74
2023/01/24 11:00:34;;;;;;;12.10;9.60;;;;;;;3.98;100.00;99740.59;5055004;28;20209;-71
2023/01/24 11:03:04;;;;;;;11.03;9.00;;;;;;;3.91;100.00;99741.28;5054626;28;20224;-71
2023/01/24 11:05:46;;;;;;;13.17;9.30;;;;;;;3.77;100.00;99737.25;5053426;28;20210;-71
2023/01/24 11:08:22;;;;;;;11.70;9.40;;;;;;;3.81;100.00;99729.91;5054978;28;20192;-74
2023/01/24 11:11:21;;;;;;;11.37;9.43;;;;;;;3.63;100.00;99731.53;5055229;28;20232;-73
2023/01/24 11:13:47;;;;;;;12.23;9.67;;;;;;;3.76;100.00;99732.13;5054530;28;20221;-73
2023/01/24 11:16:16;;;;;;;11.27;9.10;;;;;;;4.04;100.00;99734.78;5054716;28;20209;-74
2023/01/24 11:18:52;;;;;;;11.33;8.87;;;;;;;3.76;100.00;99724.22;5054298;28;20677;-73
2023/01/24 11:21:20;;;;;;;10.33;8.67;;;;;;;4.05;100.00;99730.34;5054895;28;20224;-74
2023/01/24 11:24:00;;;;;;;12.83;9.90;;;;;;;3.93;100.00;99729.63;5054281;28;20683;-74
2023/01/24 11:26:29;;;;;;;11.73;9.30;;;;;;;4.13;100.00;99733.13;5054454;28;20190;-71
2023/01/24 11:29:20;;;;;;;12.87;8.90;;;;;;;4.05;100.00;99740.88;5054499;28;20558;-74
2023/01/24 11:31:51;;;;;;;12.30;9.33;;;;;;;4.06;100.00;99730.22;5053571;28;20225;-71
2023/01/24 11:34:23;;;;;;;12.43;9.87;;;;;;;3.91;100.00;99736.84;5053732;28;20189;-71
2023/01/24 11:37:33;;;;;;;12.47;9.47;;;;;;;4.05;100.00;99735.59;5054179;28;20212;-74
2023/01/24 11:40:19;;;;;;;11.03;9.80;;;;;;;4.04;100.00;99729.53;5053607;28;20197;-72
2023/01/24 11:43:04;;;;;;;11.80;9.20;;;;;;;3.84;100.00;99732.28;5053928;28;20225;-72
2023/01/24 11:45:55;;;;;;;12.57;9.07;;;;;;;3.83;100.00;99727.94;5053805;28;20545;-72
2023/01/24 11:48:26;;;;;;;12.30;9.67;;;;;;;4.01;100.00;99726.31;5053781;28;20190;-72
2023/01/24 11:50:55;;;;;;;11.30;9.37;;;;;;;3.89;100.00;99715.09;5052613;28;20213;-72
2023/01/24 11:53:43;;;;;;;11.13;8.93;;;;;;;4.06;100.00;99710.94;5053863;28;20205;-71
2023/01/24 11:56:41;;;;;;;12.90;10.10;;;;;;;3.79;100.00;99714.25;5053771;28;20195;-72
2023/01/24 11:59:28;;;;;;;14.67;10.50;;;;;;;3.93;100.00;99713.03;5053681;28;20200;-71
2023/01/24 12:02:16;;;;;;;14.37;9.83;;;;;;;3.97;100.00;99709.97;5053394;28;20304;-72
2023/01/24 12:05:17;;;;;;;13.30;9.50;;;;;;;3.90;100.00;99708.88;5053732;28;20319;-72
2023/01/24 12:07:49;;;;;;;13.93;9.87;;;;;;;3.83;100.00;99701.66;5046523;28;20212;-72
2023/01/24 12:10:48;;;;;;;10.67;8.50;;;;;;;3.91;100.00;99691.28;5053782;28;20209;-72